Time;durP1;ratioP1;P1;durP2;ratioP2;P2;SDS_P1;SDS_P2;PMS_P1;PMS_P2;Temp;Humidity;BMP_temperature;BMP_pressure;BME280_temperature;BME280_humidity;BME280_pressure;Samples;Min_cycle;Max_cycle;Signal;HPM_P1;HPM_P2
2021/11/17 02:27:37;;;;;;;47.47;21.55;;;;;;;5.24;100.00;101661.88;5022782;28;20052;-78
2021/11/17 02:30:29;;;;;;;43.70;19.90;;;;;;;5.24;100.00;101654.16;5028639;28;20066;-78
2021/11/17 02:33:20;;;;;;;43.38;20.00;;;;;;;5.24;100.00;101642.97;5025991;28;20499;-77
2021/11/17 02:36:05;;;;;;;41.90;20.50;;;;;;;5.22;100.00;101640.38;5020284;28;20057;-78
2021/11/17 02:38:51;;;;;;;46.03;19.70;;;;;;;5.29;100.00;101639.63;5019215;28;20056;-78
2021/11/17 02:41:34;;;;;;;41.38;18.10;;;;;;;5.29;100.00;101639.63;5022566;28;20049;-78
2021/11/17 02:44:18;;;;;;;43.95;19.80;;;;;;;5.32;100.00;101636.22;5024147;28;20052;-78
2021/11/17 02:47:00;;;;;;;40.10;19.25;;;;;;;5.35;100.00;101635.41;5033811;28;20046;-78
2021/11/17 02:49:49;;;;;;;40.83;19.80;;;;;;;5.35;100.00;101633.72;5034451;28;20045;-78
2021/11/17 02:52:35;;;;;;;44.75;20.15;;;;;;;5.26;100.00;101630.97;5026104;28;20046;-77
2021/11/17 02:55:18;;;;;;;39.20;18.42;;;;;;;5.31;100.00;101636.22;5029687;28;20482;-77
2021/11/17 02:58:09;;;;;;;48.70;21.00;;;;;;;5.29;100.00;101636.22;5033218;28;20049;-78
2021/11/17 03:01:10;;;;;;;42.50;19.98;;;;;;;5.28;100.00;101637.03;5032361;28;20049;-78
2021/11/17 03:03:50;;;;;;;40.88;19.77;;;;;;;5.26;100.00;101639.56;5020743;28;20125;-78
2021/11/17 03:06:41;;;;;;;38.60;19.08;;;;;;;5.33;100.00;101639.69;5026579;28;20053;-78
2021/11/17 03:09:21;;;;;;;36.67;19.73;;;;;;;5.35;100.00;101633.72;5033188;28;20522;-78
2021/11/17 03:12:01;;;;;;;39.22;18.58;;;;;;;5.38;100.00;101638.94;5026621;28;20049;-78
2021/11/17 03:14:41;;;;;;;41.97;18.77;;;;;;;5.38;100.00;101643.22;5027457;28;20049;-78
2021/11/17 03:17:36;;;;;;;43.55;18.83;;;;;;;5.37;100.00;101636.31;5024020;28;20053;-78
2021/11/17 03:20:26;;;;;;;40.72;19.77;;;;;;;5.36;100.00;101635.47;5007975;28;20453;-78
2021/11/17 03:23:05;;;;;;;39.63;19.42;;;;;;;5.41;100.00;101630.38;5025040;28;20442;-78
2021/11/17 03:25:50;;;;;;;41.75;19.15;;;;;;;5.39;100.00;101632.91;5035166;28;23018;-77
2021/11/17 03:28:24;;;;;;;;;;;;;;;5.41;100.00;101645.84;5027296;28;20038;-78
2021/11/17 03:31:17;;;;;;;39.00;18.73;;;;;;;5.40;100.00;101657.00;5033934;28;19925;-76
2021/11/17 03:34:07;;;;;;;42.17;19.58;;;;;;;5.45;100.00;101660.53;5035575;28;20056;-78
2021/11/17 03:36:52;;;;;;;46.35;20.10;;;;;;;5.41;100.00;101651.88;5028205;28;20042;-79
2021/11/17 03:39:42;;;;;;;44.08;19.30;;;;;;;5.38;100.00;101648.38;5034365;28;20037;-78
2021/11/17 03:42:28;;;;;;;43.00;19.90;;;;;;;5.40;100.00;101642.38;5029312;28;20041;-78
2021/11/17 03:45:10;;;;;;;38.28;19.35;;;;;;;5.39;100.00;101644.94;5025740;28;20053;-78
2021/11/17 03:47:50;;;;;;;36.78;18.70;;;;;;;5.38;100.00;101633.78;5027676;28;20058;-78
2021/11/17 03:50:32;;;;;;;40.70;19.65;;;;;;;5.39;100.00;101630.31;5027420;28;20041;-78
2021/11/17 03:53:13;;;;;;;41.65;19.75;;;;;;;5.33;100.00;101626.81;5027436;28;20054;-78
2021/11/17 03:56:04;;;;;;;41.13;20.52;;;;;;;5.37;100.00;101651.78;5034477;28;20056;-78
2021/11/17 03:58:44;;;;;;;41.35;18.95;;;;;;;5.42;100.00;101670.81;5024631;28;20474;-78
2021/11/17 04:01:23;;;;;;;39.63;17.40;;;;;;;5.43;100.00;101675.13;5023198;28;20046;-78
2021/11/17 04:04:12;;;;;;;41.60;18.83;;;;;;;5.40;100.00;101673.34;5022886;28;20053;-78
2021/11/17 04:06:52;;;;;;;38.80;19.83;;;;;;;5.33;100.00;101680.97;5029796;28;20046;-78
2021/11/17 04:09:32;;;;;;;39.78;18.92;;;;;;;5.25;100.00;101681.69;5022680;28;20088;-78
2021/11/17 04:12:17;;;;;;;43.65;20.42;;;;;;;5.19;100.00;101679.00;5025038;28;20045;-78
2021/11/17 04:14:55;;;;;;;40.97;19.75;;;;;;;5.24;100.00;101682.53;5026717;28;20486;-78
2021/11/17 04:17:44;;;;;;;41.13;18.70;;;;;;;5.22;100.00;101681.66;5036309;28;20044;-77
2021/11/17 04:20:30;;;;;;;41.75;19.98;;;;;;;5.31;100.00;101680.06;5030430;28;20056;-78
2021/11/17 04:23:09;;;;;;;45.90;20.52;;;;;;;5.34;100.00;101669.81;5030060;28;20058;-78
2021/11/17 04:26:01;;;;;;;41.83;18.08;;;;;;;5.32;100.00;101680.09;5026679;28;20053;-78
2021/11/17 04:28:45;;;;;;;45.38;20.48;;;;;;;5.42;100.00;101674.25;5024912;28;20054;-78
2021/11/17 04:31:44;;;;;;;51.50;20.75;;;;;;;5.40;100.00;101667.34;5025554;28;20041;-78
2021/11/17 04:34:27;;;;;;;49.85;21.23;;;;;;;5.41;100.00;101664.78;5026219;28;20133;-78
2021/11/17 04:37:22;;;;;;;47.08;22.08;;;;;;;5.46;100.00;101670.00;5017509;28;20057;-78
2021/11/17 04:40:12;;;;;;;49.05;23.85;;;;;;;5.35;100.00;101668.94;5024567;28;20454;-77
2021/11/17 04:43:14;;;;;;;53.95;24.15;;;;;;;5.34;100.00;101652.63;5028001;28;20048;-78
2021/11/17 04:45:53;;;;;;;51.13;25.75;;;;;;;5.44;100.00;101656.19;5018874;28;20431;-78
2021/11/17 04:48:33;;;;;;;54.80;26.88;;;;;;;5.42;100.00;101661.34;5023801;28;20058;-78
2021/11/17 04:51:21;;;;;;;56.03;27.10;;;;;;;5.48;100.00;101655.44;5023757;28;20510;-77
2021/11/17 04:54:11;;;;;;;60.90;28.90;;;;;;;5.37;100.00;101659.53;5021883;28;20430;-78
2021/11/17 04:57:05;;;;;;;56.25;25.98;;;;;;;5.40;100.00;101652.72;5030705;28;20053;-78
2021/11/17 04:59:51;;;;;;;60.17;28.23;;;;;;;5.43;100.00;101649.34;5026447;28;20046;-78
2021/11/17 05:02:51;;;;;;;57.03;26.52;;;;;;;5.42;100.00;101660.50;5026111;28;20063;-78
2021/11/17 05:05:39;;;;;;;54.90;26.27;;;;;;;5.50;100.00;101683.81;5014954;28;20057;-78
2021/11/17 05:08:14;;;;;;;57.05;24.60;;;;;;;5.42;100.00;101686.28;5024343;28;20050;-78
2021/11/17 05:10:55;;;;;;;55.30;25.80;;;;;;;5.39;100.00;101670.75;5020651;28;20076;-78
2021/11/17 05:13:32;;;;;;;56.40;24.85;;;;;;;5.36;100.00;101678.44;5019075;28;20475;-78
2021/11/17 05:16:11;;;;;;;49.53;22.50;;;;;;;5.44;100.00;101669.09;5021843;28;20050;-78
2021/11/17 05:18:48;;;;;;;54.20;22.60;;;;;;;5.46;100.00;101662.25;5018786;28;20049;-78
2021/11/17 05:21:31;;;;;;;49.13;22.92;;;;;;;5.48;100.00;101658.00;5024207;28;20053;-78
2021/11/17 05:24:16;;;;;;;51.30;23.05;;;;;;;5.49;100.00;101643.41;5023927;28;20487;-78
2021/11/17 05:26:50;;;;;;;;;;;;;;;5.47;100.00;101617.56;5033110;28;20492;-77
2021/11/17 05:29:35;;;;;;;54.60;22.08;;;;;;;5.52;100.00;101615.94;5033874;28;20334;-77
2021/11/17 05:32:14;;;;;;;50.28;22.42;;;;;;;5.49;100.00;101610.72;5023680;28;20058;-77
2021/11/17 05:34:58;;;;;;;48.00;20.35;;;;;;;5.48;100.00;101619.31;5042052;22;20061;-75
2021/11/17 05:37:41;;;;;;;55.35;24.23;;;;;;;5.52;100.00;101615.06;5018938;28;20422;-77
2021/11/17 05:40:26;;;;;;;54.80;24.20;;;;;;;5.53;100.00;101640.00;5012582;28;20049;-76
2021/11/17 05:43:05;;;;;;;56.90;22.85;;;;;;;5.53;100.00;101655.50;5019611;28;20049;-76
2021/11/17 05:45:44;;;;;;;56.33;23.92;;;;;;;5.54;100.00;101652.94;5009439;28;20151;-77
2021/11/17 05:48:21;;;;;;;51.78;21.88;;;;;;;5.52;100.00;101641.75;5011948;28;20117;-76
2021/11/17 05:51:15;;;;;;;56.33;22.92;;;;;;;5.53;100.00;101645.19;5016155;28;20570;-77
2021/11/17 05:53:54;;;;;;;52.28;22.60;;;;;;;5.53;100.00;101640.91;5006594;28;20049;-76
2021/11/17 05:56:38;;;;;;;48.70;21.15;;;;;;;5.53;100.00;101642.59;5007396;28;20049;-77
2021/11/17 05:59:28;;;;;;;47.38;21.23;;;;;;;5.52;100.00;101641.75;5009851;28;20060;-76
2021/11/17 06:02:07;;;;;;;50.05;21.20;;;;;;;5.55;100.00;101634.03;5021549;28;20050;-75
2021/11/17 06:04:33;;;;;;;50.47;21.23;;;;;;;5.56;100.00;101633.19;5018035;28;20044;-75
2021/11/17 06:07:00;;;;;;;54.58;22.10;;;;;;;5.54;100.00;101626.28;5020408;28;20046;-77
2021/11/17 06:09:26;;;;;;;51.90;21.70;;;;;;;5.56;100.00;101620.28;5018333;28;20087;-76
2021/11/17 06:11:58;;;;;;;55.63;23.20;;;;;;;5.56;100.00;101614.28;5013319;28;20046;-76
2021/11/17 06:14:28;;;;;;;50.78;20.42;;;;;;;5.55;100.00;101610.81;5016774;28;20507;-75
2021/11/17 06:16:57;;;;;;;50.05;21.83;;;;;;;5.58;100.00;101610.84;5019100;28;20123;-76
2021/11/17 06:19:27;;;;;;;49.78;21.65;;;;;;;5.62;100.00;101606.63;5021123;28;20060;-76
2021/11/17 06:21:55;;;;;;;54.33;21.55;;;;;;;5.64;100.00;101614.41;5018285;28;20037;-77
2021/11/17 06:24:24;;;;;;;47.10;22.35;;;;;;;5.64;100.00;101614.41;5018288;28;20052;-76
2021/11/17 06:26:50;;;;;;;53.30;22.90;;;;;;;5.64;100.00;101619.56;5025781;28;20462;-76
2021/11/17 06:29:21;;;;;;;52.13;22.85;;;;;;;5.65;100.00;101621.25;5014820;28;20045;-76
2021/11/17 06:31:49;;;;;;;54.53;22.40;;;;;;;5.66;100.00;101623.00;5011078;28;20060;-77
2021/11/17 06:34:31;;;;;;;53.17;22.10;;;;;;;5.67;100.00;101620.47;5023386;28;20042;-76
2021/11/17 06:36:59;;;;;;;53.90;22.10;;;;;;;5.67;100.00;101619.59;5018179;28;20049;-76
2021/11/17 06:39:28;;;;;;;58.38;22.40;;;;;;;5.66;100.00;101603.25;5012176;28;20054;-75
2021/11/17 06:41:55;;;;;;;49.70;21.38;;;;;;;5.69;100.00;101594.66;5020845;28;20052;-75
2021/11/17 06:44:23;;;;;;;54.80;22.00;;;;;;;5.73;100.00;101593.88;5016511;28;20042;-77
2021/11/17 06:46:50;;;;;;;51.50;22.25;;;;;;;5.67;100.00;101584.34;5021287;28;20053;-76
2021/11/17 06:49:17;;;;;;;49.85;21.73;;;;;;;5.65;100.00;101580.84;5012570;28;20069;-76
2021/11/17 06:51:43;;;;;;;45.20;19.63;;;;;;;5.65;100.00;101590.28;5014685;28;20061;-76
2021/11/17 06:54:10;;;;;;;47.38;20.58;;;;;;;5.70;100.00;101604.16;5017222;28;20403;-77
2021/11/17 06:56:36;;;;;;;46.92;19.88;;;;;;;5.68;100.00;101606.72;5025131;28;20053;-76
2021/11/17 06:59:03;;;;;;;46.75;21.40;;;;;;;5.76;100.00;101610.28;5020523;28;22966;-75
2021/11/17 07:01:31;;;;;;;48.95;21.58;;;;;;;5.78;100.00;101618.03;5012411;28;20057;-76
2021/11/17 07:03:58;;;;;;;42.80;20.02;;;;;;;5.77;100.00;101626.63;5019926;28;20057;-75
2021/11/17 07:06:24;;;;;;;46.67;21.98;;;;;;;5.84;100.00;101635.34;5020994;28;20053;-75
2021/11/17 07:08:51;;;;;;;45.90;20.50;;;;;;;5.87;100.00;101644.00;5027375;28;20041;-77
2021/11/17 07:11:17;;;;;;;48.15;20.88;;;;;;;5.95;100.00;101648.38;5029556;28;20049;-77
2021/11/17 07:13:44;;;;;;;49.58;21.27;;;;;;;5.98;100.00;101656.19;5029219;28;20466;-74
2021/11/17 07:16:10;;;;;;;43.83;20.02;;;;;;;5.98;100.00;101657.06;5028456;28;20133;-75
2021/11/17 07:18:38;;;;;;;45.35;20.30;;;;;;;5.95;100.00;101656.13;5027955;28;20462;-76
2021/11/17 07:21:07;;;;;;;46.25;21.05;;;;;;;5.99;100.00;101661.41;5026967;28;20045;-74
2021/11/17 07:23:33;;;;;;;44.17;20.10;;;;;;;6.02;100.00;101660.59;5021710;28;20042;-74
2021/11/17 07:26:00;;;;;;;48.53;21.52;;;;;;;6.03;100.00;101662.34;5029377;28;20056;-76
2021/11/17 07:28:26;;;;;;;46.05;19.85;;;;;;;6.05;100.00;101669.25;5027764;28;20099;-76
2021/11/17 07:30:53;;;;;;;45.03;20.60;;;;;;;6.10;100.00;101665.84;5027409;28;20049;-75
2021/11/17 07:33:19;;;;;;;47.00;20.60;;;;;;;6.13;100.00;101671.97;5028464;28;20080;-76
2021/11/17 07:35:49;;;;;;;43.95;20.30;;;;;;;6.34;100.00;101671.38;5028481;28;20072;-77
2021/11/17 07:38:19;;;;;;;41.38;19.60;;;;;;;6.26;100.00;101675.56;5026430;28;20049;-76
2021/11/17 07:40:47;;;;;;;42.90;20.58;;;;;;;6.21;100.00;101670.34;5027416;28;20072;-74
2021/11/17 07:43:16;;;;;;;44.10;19.58;;;;;;;6.18;100.00;101669.44;5028848;28;20045;-77
2021/11/17 07:45:44;;;;;;;45.30;20.88;;;;;;;6.24;100.00;101672.09;5023546;28;20048;-77
2021/11/17 07:48:13;;;;;;;45.05;20.85;;;;;;;6.31;100.00;101679.06;5027567;28;20056;-76
2021/11/17 07:50:40;;;;;;;44.88;21.67;;;;;;;6.28;100.00;101678.19;5024629;28;20065;-75
2021/11/17 07:53:09;;;;;;;44.22;20.65;;;;;;;6.30;100.00;101673.91;5021907;28;20069;-75
2021/11/17 07:55:38;;;;;;;40.22;18.73;;;;;;;6.28;100.00;101680.75;5027695;28;20045;-76
2021/11/17 07:58:06;;;;;;;45.67;20.83;;;;;;;6.20;100.00;101678.94;5025506;28;20516;-76
2021/11/17 08:00:33;;;;;;;43.45;18.75;;;;;;;6.27;100.00;101676.44;5027281;28;20046;-77
2021/11/17 08:03:01;;;;;;;44.80;19.75;;;;;;;6.28;100.00;101681.63;5016203;28;20050;-76
2021/11/17 08:05:28;;;;;;;43.15;19.48;;;;;;;6.33;100.00;101679.13;5027233;28;20041;-78
2021/11/17 08:07:54;;;;;;;42.47;19.67;;;;;;;6.36;100.00;101673.97;5018096;28;20088;-77
2021/11/17 08:10:25;;;;;;;40.78;20.27;;;;;;;6.38;100.00;101677.44;5023262;28;20045;-77
2021/11/17 08:12:52;;;;;;;40.33;19.35;;;;;;;6.45;100.00;101666.34;5021511;28;20053;-77
2021/11/17 08:15:19;;;;;;;40.90;19.75;;;;;;;6.53;100.00;101674.19;5019207;28;20056;-77
2021/11/17 08:17:46;;;;;;;39.50;18.30;;;;;;;6.49;100.00;101675.00;5016502;28;20058;-77
2021/11/17 08:20:16;;;;;;;42.80;19.75;;;;;;;6.50;100.00;101680.19;5014720;28;20053;-77
2021/11/17 08:22:44;;;;;;;37.20;18.20;;;;;;;6.58;100.00;101685.47;5020982;28;20607;-77
2021/11/17 08:25:12;;;;;;;39.38;17.65;;;;;;;6.59;100.00;101684.59;5020822;28;20042;-76
2021/11/17 08:27:40;;;;;;;36.53;18.23;;;;;;;6.53;100.00;101675.09;5024945;28;20402;-77
2021/11/17 08:30:10;;;;;;;38.55;17.80;;;;;;;6.56;100.00;101673.34;5020593;28;20049;-77
2021/11/17 08:32:37;;;;;;;39.15;17.77;;;;;;;6.64;100.00;101680.38;5023772;28;20049;-77
2021/11/17 08:35:04;;;;;;;37.83;17.67;;;;;;;6.64;100.00;101671.72;5029843;28;20042;-77
2021/11/17 08:37:32;;;;;;;39.55;18.42;;;;;;;6.70;100.00;101669.25;5018393;28;20427;-76
2021/11/17 08:39:58;;;;;;;37.00;18.42;;;;;;;6.64;100.00;101675.19;5018995;28;20052;-77
2021/11/17 08:42:25;;;;;;;40.60;17.58;;;;;;;6.66;100.00;101672.63;5012264;28;20053;-75
2021/11/17 08:44:54;;;;;;;39.10;18.58;;;;;;;6.69;100.00;101677.84;5021762;28;20106;-76
2021/11/17 08:47:21;;;;;;;37.63;17.45;;;;;;;6.72;100.00;101677.00;5013294;28;20072;-77
2021/11/17 08:49:47;;;;;;;36.45;17.98;;;;;;;6.79;100.00;101682.28;5019350;28;20072;-77
2021/11/17 08:52:14;;;;;;;38.15;16.95;;;;;;;6.89;100.00;101679.78;5016889;28;20545;-75
2021/11/17 08:54:42;;;;;;;37.55;16.73;;;;;;;6.83;99.80;101685.75;5017234;28;20065;-74
2021/11/17 08:57:08;;;;;;;37.70;17.58;;;;;;;6.77;99.96;101685.69;5017475;28;20515;-75
2021/11/17 08:59:35;;;;;;;34.75;16.55;;;;;;;6.75;100.00;101675.31;5022102;28;20546;-76
2021/11/17 09:02:05;;;;;;;37.92;18.52;;;;;;;6.82;100.00;101673.69;5026957;28;20053;-75
2021/11/17 09:04:31;;;;;;;39.45;18.17;;;;;;;6.82;100.00;101668.50;5024202;28;20050;-75
2021/11/17 09:06:58;;;;;;;34.75;16.58;;;;;;;6.91;100.00;101667.75;5023635;28;20053;-76
2021/11/17 09:09:25;;;;;;;37.78;17.15;;;;;;;6.97;99.93;101675.56;5019342;28;20529;-76
2021/11/17 09:11:52;;;;;;;37.28;18.02;;;;;;;6.99;100.00;101682.47;5025537;28;20503;-76
2021/11/17 09:14:18;;;;;;;37.22;16.33;;;;;;;7.10;100.00;101672.28;5024576;28;20045;-76
2021/11/17 09:16:45;;;;;;;35.58;16.95;;;;;;;7.11;98.96;101671.41;5024674;28;20130;-75
2021/11/17 09:19:13;;;;;;;34.88;16.95;;;;;;;7.18;99.18;101682.72;5024529;28;20466;-76
2021/11/17 09:21:43;;;;;;;36.67;17.52;;;;;;;7.21;99.19;101685.31;5016794;28;20360;-76
2021/11/17 09:24:11;;;;;;;35.70;17.33;;;;;;;7.17;99.50;101688.72;5024150;28;20050;-76
2021/11/17 09:26:40;;;;;;;33.22;16.40;;;;;;;7.20;99.14;101700.81;5022919;28;20042;-76
2021/11/17 09:29:07;;;;;;;34.22;16.40;;;;;;;7.14;99.21;101707.66;5020608;28;20447;-76
2021/11/17 09:31:35;;;;;;;36.00;17.15;;;;;;;7.05;99.67;101704.13;5017389;28;20056;-76
2021/11/17 09:34:02;;;;;;;33.75;16.30;;;;;;;7.12;100.00;101698.16;5015898;28;20060;-77
2021/11/17 09:36:33;;;;;;;34.95;16.10;;;;;;;7.16;100.00;101700.78;5018123;28;20066;-76
2021/11/17 09:39:00;;;;;;;35.17;15.18;;;;;;;7.16;100.00;101707.69;5024691;28;20057;-76
2021/11/17 09:41:29;;;;;;;33.85;16.77;;;;;;;7.26;99.58;101706.94;5022010;28;20056;-76
2021/11/17 09:43:58;;;;;;;33.72;16.23;;;;;;;7.16;100.00;101720.63;5024024;28;20053;-76
2021/11/17 09:46:28;;;;;;;36.78;17.30;;;;;;;7.13;100.00;101713.72;5016598;28;20046;-77
2021/11/17 09:48:57;;;;;;;36.67;16.92;;;;;;;7.22;100.00;101715.50;5024250;28;20537;-76
2021/11/17 09:51:27;;;;;;;36.78;17.55;;;;;;;7.18;100.00;101718.03;5022561;28;20161;-76
2021/11/17 09:54:01;;;;;;;37.78;17.33;;;;;;;7.30;100.00;101723.34;5021697;28;20061;-77
2021/11/17 09:56:31;;;;;;;34.38;17.50;;;;;;;7.27;100.00;101713.84;5024376;28;20051;-75
2021/11/17 09:59:04;;;;;;;37.70;18.35;;;;;;;7.21;100.00;101712.91;5025517;28;20060;-75
2021/11/17 10:01:34;;;;;;;36.95;18.00;;;;;;;7.25;100.00;101714.66;5021218;28;20052;-75
2021/11/17 10:04:05;;;;;;;42.28;17.95;;;;;;;7.31;100.00;101719.91;5025817;28;20045;-75
2021/11/17 10:07:13;;;;;;;34.20;17.13;;;;;;;7.49;100.00;101719.22;5019963;28;20042;-76
2021/11/17 10:10:05;;;;;;;43.75;17.73;;;;;;;7.51;100.00;101729.59;5017146;28;20048;-75
2021/11/17 10:12:52;;;;;;;38.85;18.88;;;;;;;7.50;100.00;101727.88;5019601;28;20072;-75
2021/11/17 10:15:22;;;;;;;42.42;18.10;;;;;;;7.52;100.00;101728.75;5022585;28;20553;-76
2021/11/17 10:17:52;;;;;;;42.85;18.98;;;;;;;7.62;100.00;101739.19;5024527;28;20053;-75
2021/11/17 10:20:27;;;;;;;38.20;18.85;;;;;;;7.66;100.00;101732.31;5023878;28;20079;-73
2021/11/17 10:23:16;;;;;;;43.85;20.08;;;;;;;7.53;100.00;101731.34;5018479;28;20065;-74
2021/11/17 10:25:46;;;;;;;47.42;19.92;;;;;;;7.61;100.00;101734.00;5018032;28;20073;-73
2021/11/17 10:28:13;;;;;;;42.00;19.42;;;;;;;7.56;100.00;101728.78;5017215;28;20057;-74
2021/11/17 10:30:52;;;;;;;45.08;20.02;;;;;;;7.62;100.00;101727.97;5018938;28;20111;-73
2021/11/17 10:33:22;;;;;;;48.75;20.40;;;;;;;7.64;100.00;101726.25;5013510;28;20058;-74
2021/11/17 10:36:14;;;;;;;47.65;22.15;;;;;;;7.84;100.00;101730.72;5017071;28;20522;-74
2021/11/17 10:38:45;;;;;;;45.88;22.00;;;;;;;7.75;100.00;101732.41;5007162;28;20046;-74
2021/11/17 10:41:21;;;;;;;47.88;22.00;;;;;;;7.69;100.00;101729.75;5014037;28;20053;-74
2021/11/17 10:43:56;;;;;;;48.42;23.23;;;;;;;7.67;100.00;101728.88;5016089;28;20057;-74
2021/11/17 10:46:32;;;;;;;49.30;22.27;;;;;;;7.71;100.00;101725.47;5016368;28;20041;-74
2021/11/17 10:49:08;;;;;;;41.22;21.17;;;;;;;7.82;100.00;101722.09;5019927;28;20045;-74
2021/11/17 10:51:37;;;;;;;49.15;22.63;;;;;;;7.86;100.00;101729.03;5017533;28;20049;-74
2021/11/17 10:54:09;;;;;;;52.88;23.77;;;;;;;7.76;100.00;101721.19;5018928;28;20088;-74
2021/11/17 10:56:38;;;;;;;53.47;23.63;;;;;;;7.80;100.00;101724.66;5015503;28;20046;-74
2021/11/17 10:59:07;;;;;;;46.85;20.48;;;;;;;7.80;100.00;101718.63;5017809;28;20041;-74
2021/11/17 11:01:37;;;;;;;52.95;21.45;;;;;;;7.76;100.00;101718.59;5015087;28;20068;-73
2021/11/17 11:04:08;;;;;;;49.70;22.50;;;;;;;7.80;100.00;101719.47;5021680;28;20053;-74
2021/11/17 11:06:40;;;;;;;53.95;22.25;;;;;;;7.65;100.00;101715.03;5017022;28;20045;-74
2021/11/17 11:09:12;;;;;;;52.38;22.88;;;;;;;7.80;100.00;101713.44;5012615;28;20053;-74
2021/11/17 11:11:45;;;;;;;46.47;21.13;;;;;;;7.87;100.00;101717.81;5018909;28;20053;-74
2021/11/17 11:14:15;;;;;;;48.22;20.73;;;;;;;7.87;100.00;101717.81;5019638;28;20049;-74
2021/11/17 11:16:44;;;;;;;52.85;22.38;;;;;;;7.84;100.00;101720.38;5025774;28;20061;-74
2021/11/17 11:19:29;;;;;;;55.20;22.77;;;;;;;7.78;100.00;101719.47;5023771;28;20045;-74
2021/11/17 11:22:09;;;;;;;50.65;21.83;;;;;;;8.00;100.00;101721.34;5017934;28;20045;-74
2021/11/17 11:24:39;;;;;;;50.75;21.23;;;;;;;7.93;100.00;101723.91;5021814;28;20053;-74
2021/11/17 11:27:16;;;;;;;59.78;23.98;;;;;;;7.85;100.00;101722.09;5020274;28;20053;-75
2021/11/17 11:29:45;;;;;;;60.17;23.67;;;;;;;7.84;100.00;101725.56;5020709;28;20050;-75
2021/11/17 11:32:48;;;;;;;52.08;23.33;;;;;;;7.85;100.00;101727.28;5020366;28;20041;-74
2021/11/17 11:35:19;;;;;;;59.78;24.33;;;;;;;7.88;100.00;101725.63;5046640;22;20063;-75
2021/11/17 11:38:05;;;;;;;51.55;22.55;;;;;;;7.83;100.00;101729.03;4998989;28;20073;-76
2021/11/17 11:41:07;;;;;;;53.13;24.30;;;;;;;7.86;100.00;101719.56;5001097;28;20046;-74
2021/11/17 11:43:35;;;;;;;53.90;21.88;;;;;;;7.93;100.00;101717.88;5007272;28;20112;-77
2021/11/17 11:46:23;;;;;;;52.58;21.40;;;;;;;8.04;100.00;101733.50;5003085;28;20403;-76
2021/11/17 11:49:04;;;;;;;58.25;22.65;;;;;;;8.16;100.00;101727.53;4999340;28;20058;-77
2021/11/17 11:52:14;;;;;;;55.67;21.83;;;;;;;8.08;100.00;101725.75;4994756;28;20061;-76
2021/11/17 11:55:26;;;;;;;59.15;23.88;;;;;;;8.03;100.00;101737.81;5003207;28;21792;-76
2021/11/17 11:58:13;;;;;;;58.70;23.27;;;;;;;8.01;100.00;101734.34;4963298;28;20204;-77
2021/11/17 12:00:41;;;;;;;61.22;25.55;;;;;;;8.05;100.00;101736.09;5000967;28;20104;-77
2021/11/17 12:03:10;;;;;;;62.42;24.42;;;;;;;8.04;100.00;101734.34;5001094;28;20080;-77
2021/11/17 12:05:44;;;;;;;64.47;26.60;;;;;;;8.03;100.00;101740.41;5000880;28;20053;-76
2021/11/17 12:08:14;;;;;;;57.93;24.40;;;;;;;8.02;100.00;101741.28;4996315;28;20439;-76
2021/11/17 12:10:43;;;;;;;64.05;25.15;;;;;;;7.98;100.00;101739.50;4998473;28;20313;-75
2021/11/17 12:13:13;;;;;;;64.30;24.45;;;;;;;7.99;100.00;101738.66;5001348;28;20072;-76
2021/11/17 12:15:58;;;;;;;66.28;24.95;;;;;;;7.94;100.00;101737.72;4997590;28;20046;-75
2021/11/17 12:18:24;;;;;;;66.45;26.30;;;;;;;7.91;100.00;101738.56;4994132;28;20061;-76
2021/11/17 12:21:07;;;;;;;59.70;23.50;;;;;;;7.97;100.00;101742.09;5003174;28;20054;-74
2021/11/17 12:23:36;;;;;;;69.65;26.42;;;;;;;7.99;100.00;101749.00;5001973;28;20143;-76
2021/11/17 12:26:08;;;;;;;71.00;26.67;;;;;;;8.04;100.00;101742.13;5000541;28;20069;-74
2021/11/17 12:28:42;;;;;;;63.03;24.63;;;;;;;8.04;100.00;101738.69;5003710;28;20061;-76
2021/11/17 12:31:15;;;;;;;67.13;24.83;;;;;;;8.07;100.00;101746.47;5002444;28;20510;-77
2021/11/17 12:33:47;;;;;;;63.40;24.45;;;;;;;8.13;100.00;101743.06;5002496;28;20459;-77
2021/11/17 12:36:20;;;;;;;57.97;22.98;;;;;;;8.19;100.00;101743.97;4998326;28;20061;-76
2021/11/17 12:38:48;;;;;;;63.28;25.85;;;;;;;8.24;100.00;101737.09;5001129;28;20328;-76
2021/11/17 12:41:20;;;;;;;65.18;25.10;;;;;;;8.27;100.00;101738.84;5004645;28;20100;-77
2021/11/17 12:43:57;;;;;;;63.15;25.27;;;;;;;8.30;100.00;101738.88;5005991;28;20053;-76
2021/11/17 12:46:29;;;;;;;61.67;23.85;;;;;;;8.26;100.00;101734.50;5004687;28;20045;-76
2021/11/17 12:49:08;;;;;;;60.13;23.63;;;;;;;8.30;100.00;101761.31;5000325;28;20050;-76
2021/11/17 12:51:38;;;;;;;63.60;23.80;;;;;;;8.32;100.00;101759.59;4995956;28;20107;-76
2021/11/17 12:54:08;;;;;;;67.18;24.77;;;;;;;8.33;100.00;101751.84;4998268;28;20058;-76
2021/11/17 12:56:40;;;;;;;68.80;26.17;;;;;;;8.33;100.00;101762.22;4999363;28;20100;-75
2021/11/17 12:59:18;;;;;;;57.97;23.75;;;;;;;8.36;100.00;101766.56;5001978;28;20061;-74
2021/11/17 13:01:48;;;;;;;60.63;23.45;;;;;;;8.36;100.00;101772.59;5005422;28;20066;-76
2021/11/17 13:04:30;;;;;;;63.58;25.08;;;;;;;8.34;100.00;101766.53;5001391;28;20046;-74
2021/11/17 13:06:59;;;;;;;69.60;25.85;;;;;;;8.39;100.00;101777.81;4998210;28;20113;-75
2021/11/17 13:09:29;;;;;;;68.20;25.17;;;;;;;8.47;100.00;101769.19;5002093;28;20068;-75
2021/11/17 13:12:15;;;;;;;72.15;26.15;;;;;;;8.45;100.00;101773.50;5001553;28;20042;-73
2021/11/17 13:14:54;;;;;;;67.35;25.38;;;;;;;8.46;100.00;101772.66;5001026;28;20042;-76
2021/11/17 13:17:25;;;;;;;69.55;26.50;;;;;;;8.49;100.00;101772.72;4998040;28;20145;-73
2021/11/17 13:19:53;;;;;;;70.93;27.60;;;;;;;8.49;100.00;101772.72;4999154;28;20538;-75
2021/11/17 13:22:27;;;;;;;75.35;28.17;;;;;;;8.52;100.00;101778.78;5001444;28;20061;-73
2021/11/17 13:25:20;;;;;;;77.67;28.60;;;;;;;8.61;100.00;101770.19;5001481;28;20053;-74
2021/11/17 13:27:50;;;;;;;72.82;28.60;;;;;;;8.63;100.00;101777.97;5002550;28;20050;-75
2021/11/17 13:30:29;;;;;;;74.28;29.02;;;;;;;8.66;100.00;101778.00;4999930;28;20116;-73
2021/11/17 13:32:56;;;;;;;76.40;26.95;;;;;;;8.68;100.00;101777.16;4998806;28;20515;-76
2021/11/17 13:35:25;;;;;;;72.82;27.58;;;;;;;8.73;100.00;101768.53;5004789;28;20045;-76
2021/11/17 13:38:08;;;;;;;76.50;28.80;;;;;;;8.70;100.00;101772.84;4996936;28;20518;-76
2021/11/17 13:40:35;;;;;;;79.43;29.52;;;;;;;8.73;100.00;101786.69;4997159;28;20062;-76
2021/11/17 13:43:02;;;;;;;74.03;27.73;;;;;;;8.73;100.00;101777.16;5002418;28;20050;-77
2021/11/17 13:45:29;;;;;;;76.22;29.17;;;;;;;8.70;100.00;101780.63;4993410;28;20151;-75
2021/11/17 13:47:57;;;;;;;72.07;26.92;;;;;;;8.76;100.00;101773.72;4996658;28;20053;-75
2021/11/17 13:50:28;;;;;;;79.20;28.88;;;;;;;8.82;100.00;101778.94;5004948;28;20058;-75
2021/11/17 13:52:57;;;;;;;75.80;29.17;;;;;;;8.80;100.00;101773.75;5004530;28;20060;-75
2021/11/17 13:55:26;;;;;;;72.22;27.88;;;;;;;8.90;100.00;101771.19;4999983;28;20058;-74
2021/11/17 13:57:54;;;;;;;75.10;28.63;;;;;;;8.97;100.00;101768.63;4998831;28;20050;-75
2021/11/17 14:00:23;;;;;;;73.18;28.10;;;;;;;8.97;100.00;101768.63;5000105;28;20069;-75
2021/11/17 14:02:50;;;;;;;80.43;30.58;;;;;;;8.94;100.00;101776.38;5000828;28;20104;-75
2021/11/17 14:05:18;;;;;;;72.22;27.58;;;;;;;8.99;100.00;101779.00;4999532;28;20562;-75
2021/11/17 14:07:46;;;;;;;75.03;27.85;;;;;;;9.03;100.00;101778.16;4998437;28;20101;-76
2021/11/17 14:10:13;;;;;;;71.78;29.40;;;;;;;8.97;100.00;101781.59;4997551;28;20074;-76
2021/11/17 14:12:40;;;;;;;78.90;29.38;;;;;;;8.96;100.00;101789.38;4997676;28;20046;-76